Time;durP1;ratioP1;P1;durP2;ratioP2;P2;SDS_P1;SDS_P2;PMS_P1;PMS_P2;Temp;Humidity;BMP_temperature;BMP_pressure;BME280_temperature;BME280_humidity;BME280_pressure;Samples;Min_cycle;Max_cycle;Signal;HPM_P1;HPM_P2
2021/06/23 00:02:15;;;;;;;14.10;12.97;;;17.10;99.40;;;;;;5113217;28;20178;-61
2021/06/23 00:04:42;;;;;;;23.70;21.23;;;16.70;99.90;;;;;;5113566;28;20594;-60
2021/06/23 00:07:08;;;;;;;16.67;15.00;;;16.70;99.80;;;;;;5113196;28;20233;-60
2021/06/23 00:09:34;;;;;;;14.87;13.50;;;16.60;99.90;;;;;;5113443;28;20404;-60
2021/06/23 00:12:00;;;;;;;13.63;12.47;;;16.90;99.90;;;;;;5112219;28;20177;-60
2021/06/23 00:14:26;;;;;;;18.67;16.90;;;17.10;99.50;;;;;;5113562;28;20170;-60
2021/06/23 00:16:51;;;;;;;18.43;16.83;;;17.20;99.40;;;;;;5113081;28;20222;-61
2021/06/23 00:19:19;;;;;;;18.07;16.33;;;16.80;99.90;;;;;;5113207;28;20530;-60
2021/06/23 00:21:44;;;;;;;23.37;20.90;;;16.80;99.90;;;;;;5113268;28;20166;-60
2021/06/23 00:24:10;;;;;;;23.50;21.10;;;16.70;99.90;;;;;;5113035;28;20768;-61
2021/06/23 00:26:36;;;;;;;16.53;15.10;;;16.90;99.70;;;;;;5112878;28;20630;-61
2021/06/23 00:29:03;;;;;;;15.50;14.13;;;16.60;99.90;;;;;;5113103;28;20727;-61
2021/06/23 00:31:29;;;;;;;19.30;17.50;;;16.80;99.90;;;;;;5112990;28;20835;-61
2021/06/23 00:33:57;;;;;;;19.37;17.53;;;16.90;99.90;;;;;;5112999;28;20490;-61
2021/06/23 00:36:23;;;;;;;21.10;19.17;;;16.60;99.90;;;;;;5112975;28;20657;-60
2021/06/23 00:38:48;;;;;;;20.87;18.70;;;16.20;99.90;;;;;;5112510;28;20447;-60
2021/06/23 00:41:18;;;;;;;17.40;15.70;;;16.30;99.90;;;;;;5113068;28;20170;-61
2021/06/23 00:43:45;;;;;;;16.73;15.27;;;16.50;99.90;;;;;;5112825;28;20215;-60
2021/06/23 00:46:12;;;;;;;24.27;21.70;;;16.50;99.90;;;;;;5112856;28;20404;-60
2021/06/23 00:48:38;;;;;;;19.00;17.10;;;16.60;99.90;;;;;;5112426;28;20427;-60
2021/06/23 00:51:04;;;;;;;17.20;15.60;;;16.90;99.90;;;;;;5112706;28;20404;-61
2021/06/23 00:53:30;;;;;;;18.53;16.80;;;17.00;99.70;;;;;;5112584;28;20173;-61
2021/06/23 00:55:57;;;;;;;15.40;14.00;;;17.30;99.30;;;;;;5112674;28;20419;-61
2021/06/23 00:58:24;;;;;;;17.37;15.77;;;17.30;99.10;;;;;;5112279;28;20558;-61
2021/06/23 01:00:52;;;;;;;17.40;15.83;;;17.50;98.70;;;;;;5112190;28;20514;-61
2021/06/23 01:03:19;;;;;;;16.97;15.27;;;17.50;98.50;;;;;;5112570;28;20471;-61
2021/06/23 01:05:45;;;;;;;18.47;16.80;;;17.50;98.30;;;;;;5112400;28;20403;-61
2021/06/23 01:08:11;;;;;;;15.37;14.03;;;17.30;98.60;;;;;;5112077;28;20473;-61
2021/06/23 01:10:37;;;;;;;21.10;18.87;;;17.20;98.80;;;;;;5112459;28;20556;-61
2021/06/23 01:13:30;;;;;;;25.70;23.10;;;17.50;98.40;;;;;;5112003;28;20581;-60
2021/06/23 01:15:58;;;;;;;20.37;18.30;;;17.20;99.10;;;;;;5112536;28;20408;-61
2021/06/23 01:18:25;;;;;;;21.10;19.00;;;17.20;98.90;;;;;;5111716;28;20424;-61
2021/06/23 01:20:51;;;;;;;18.07;16.37;;;16.90;99.60;;;;;;5112315;28;20486;-61
2021/06/23 01:23:17;;;;;;;20.13;18.17;;;16.90;99.80;;;;;;5112450;28;20881;-61
2021/06/23 01:25:44;;;;;;;19.00;17.20;;;17.10;99.30;;;;;;5112296;28;20492;-61
2021/06/23 01:28:10;;;;;;;14.37;13.07;;;17.20;99.00;;;;;;5111892;28;20266;-60
2021/06/23 01:30:36;;;;;;;21.27;19.13;;;17.20;98.70;;;;;;5112214;28;20541;-61
2021/06/23 01:33:03;;;;;;;25.43;22.90;;;16.80;99.10;;;;;;5112003;28;20490;-60
2021/06/23 01:35:30;;;;;;;17.33;15.33;;;16.80;99.50;;;;;;5112761;28;20548;-57
2021/06/23 01:37:57;;;;;;;25.70;23.00;;;16.50;99.90;;;;;;5111770;28;20912;-58
2021/06/23 01:40:22;;;;;;;24.93;22.30;;;16.20;99.90;;;;;;5112111;28;20447;-56
2021/06/23 01:42:48;;;;;;;21.27;18.97;;;16.00;99.90;;;;;;5112155;28;20760;-55
2021/06/23 01:45:14;;;;;;;24.63;22.23;;;16.10;99.90;;;;;;5112115;28;20174;-60
2021/06/23 01:47:41;;;;;;;19.70;17.67;;;15.70;99.90;;;;;;5111814;28;20667;-56
2021/06/23 01:50:07;;;;;;;25.03;21.13;;;16.20;99.90;;;;;;5112478;28;20410;-57
2021/06/23 01:52:32;;;;;;;18.20;16.40;;;16.00;99.90;;;;;;5111999;28;20460;-59
2021/06/23 01:54:58;;;;;;;21.40;19.10;;;16.20;99.90;;;;;;5112044;28;20415;-59
2021/06/23 01:57:26;;;;;;;22.13;19.87;;;16.10;99.90;;;;;;5111629;28;20197;-53
2021/06/23 01:59:51;;;;;;;23.00;20.77;;;16.30;99.90;;;;;;5111938;28;20185;-56
2021/06/23 02:02:20;;;;;;;18.30;16.60;;;16.40;99.90;;;;;;5111848;28;20480;-53
2021/06/23 02:05:04;;;;;;;22.60;20.43;;;16.60;99.90;;;;;;5111922;28;20170;-56
2021/06/23 02:07:57;;;;;;;20.20;18.17;;;16.50;99.90;;;;;;5111568;28;20448;-55
2021/06/23 02:10:31;;;;;;;23.57;21.27;;;16.30;99.90;;;;;;5110639;28;20935;-57
2021/06/23 02:13:27;;;;;;;26.07;23.40;;;16.10;99.90;;;;;;5111826;28;20471;-56
2021/06/23 02:15:56;;;;;;;21.97;19.70;;;16.30;99.90;;;;;;5111842;28;20414;-57
2021/06/23 02:18:25;;;;;;;23.63;21.23;;;16.00;99.90;;;;;;5111504;28;20423;-57
2021/06/23 02:20:54;;;;;;;28.20;25.20;;;16.20;99.90;;;;;;5111704;28;20436;-56
2021/06/23 02:23:21;;;;;;;25.97;23.33;;;15.90;99.90;;;;;;5111656;28;20416;-55
2021/06/23 02:25:47;;;;;;;25.67;23.07;;;15.90;99.90;;;;;;5114506;28;20408;-59
2021/06/23 02:28:13;;;;;;;27.03;24.23;;;15.80;99.90;;;;;;5115224;28;20426;-54
2021/06/23 02:30:39;;;;;;;22.90;20.53;;;15.40;99.90;;;;;;5115627;28;20447;-54
2021/06/23 02:33:07;;;;;;;30.43;27.33;;;15.70;99.90;;;;;;5115404;28;20404;-56
2021/06/23 02:35:34;;;;;;;24.90;22.43;;;15.70;99.90;;;;;;5115862;28;20498;-54
2021/06/23 02:38:00;;;;;;;20.47;18.27;;;15.80;99.90;;;;;;5114966;28;20933;-54
2021/06/23 02:40:27;;;;;;;22.90;19.90;;;16.10;99.90;;;;;;5115609;28;20451;-56
2021/06/23 02:42:54;;;;;;;30.10;21.70;;;16.10;99.90;;;;;;5115383;28;20162;-57
2021/06/23 02:45:22;;;;;;;23.63;20.97;;;16.10;99.90;;;;;;5115132;28;20961;-53
2021/06/23 02:47:47;;;;;;;26.27;21.73;;;16.20;99.90;;;;;;5114927;28;20472;-57
2021/06/23 02:50:13;;;;;;;24.63;22.00;;;15.70;99.90;;;;;;5115222;28;20407;-55
2021/06/23 02:52:40;;;;;;;25.73;21.90;;;15.90;99.90;;;;;;5115048;28;20522;-57
2021/06/23 02:55:06;;;;;;;22.10;19.77;;;16.20;99.90;;;;;;5115323;28;20199;-53
2021/06/23 02:57:36;;;;;;;20.33;18.33;;;16.10;99.90;;;;;;5114680;28;20811;-60
2021/06/23 03:00:05;;;;;;;21.60;19.30;;;15.70;99.90;;;;;;5114993;28;20495;-56
2021/06/23 03:02:30;;;;;;;19.57;17.70;;;16.10;99.90;;;;;;5113493;28;20464;-59
2021/06/23 03:04:56;;;;;;;30.27;26.77;;;16.20;99.90;;;;;;5114925;28;20427;-53
2021/06/23 03:07:22;;;;;;;27.47;24.33;;;16.20;99.90;;;;;;5114565;28;20257;-54
2021/06/23 03:09:48;;;;;;;30.20;25.70;;;16.10;99.90;;;;;;5114893;28;20166;-53
2021/06/23 03:12:16;;;;;;;23.27;20.80;;;16.10;99.90;;;;;;5114833;28;20516;-53
2021/06/23 03:14:42;;;;;;;20.90;19.00;;;16.50;99.90;;;;;;5114766;28;20166;-57
2021/06/23 03:17:08;;;;;;;22.17;20.07;;;16.60;99.40;;;;;;5114249;28;20404;-56
2021/06/23 03:19:34;;;;;;;28.33;23.20;;;16.40;99.50;;;;;;5114609;28;20981;-56
2021/06/23 03:22:08;;;;;;;21.10;19.00;;;16.30;99.60;;;;;;5114589;28;20245;-54
2021/06/23 03:24:36;;;;;;;20.47;18.43;;;16.50;99.70;;;;;;5114526;28;20400;-53
2021/06/23 03:27:02;;;;;;;21.70;19.70;;;16.40;99.50;;;;;;5114120;28;20407;-52
2021/06/23 03:29:30;;;;;;;21.67;19.37;;;16.10;99.90;;;;;;5114546;28;20404;-54
2021/06/23 03:31:56;;;;;;;27.77;24.90;;;16.30;99.90;;;;;;5114435;28;20632;-56
2021/06/23 03:34:22;;;;;;;21.07;18.97;;;16.60;99.40;;;;;;5114320;28;20498;-57
2021/06/23 03:36:48;;;;;;;19.20;17.30;;;16.50;99.40;;;;;;5113208;28;20845;-56
2021/06/23 03:39:14;;;;;;;21.57;19.63;;;16.50;99.40;;;;;;5114151;28;20496;-60
2021/06/23 03:41:39;;;;;;;18.07;16.57;;;16.60;99.30;;;;;;5114287;28;20166;-55
2021/06/23 03:44:05;;;;;;;18.60;16.80;;;16.70;99.10;;;;;;5114119;28;20162;-53
2021/06/23 03:46:30;;;;;;;17.80;16.20;;;16.50;99.40;;;;;;5113937;28;20701;-57
2021/06/23 03:48:57;;;;;;;23.03;20.70;;;16.60;99.20;;;;;;5113932;28;20190;-57
2021/06/23 03:51:24;;;;;;;18.87;17.17;;;16.40;99.70;;;;;;5114079;28;20358;-58
2021/06/23 03:53:49;;;;;;;20.00;17.93;;;16.70;99.20;;;;;;5113955;28;20408;-57
2021/06/23 03:56:15;;;;;;;17.87;16.07;;;16.60;99.10;;;;;;5114080;28;20408;-57
2021/06/23 03:58:42;;;;;;;24.07;20.90;;;16.90;98.80;;;;;;5112159;28;20222;-59
2021/06/23 04:01:08;;;;;;;17.43;15.90;;;16.90;98.50;;;;;;5113778;28;20596;-55
2021/06/23 04:03:33;;;;;;;20.53;18.50;;;16.50;99.00;;;;;;5113748;28;20400;-56
2021/06/23 04:05:59;;;;;;;17.53;15.83;;;16.40;99.50;;;;;;5113681;28;20488;-54
2021/06/23 04:08:25;;;;;;;17.63;15.77;;;16.60;99.40;;;;;;5113237;28;20632;-60
2021/06/23 04:10:50;;;;;;;15.17;13.93;;;16.70;99.00;;;;;;5113719;28;20241;-60
2021/06/23 04:13:16;;;;;;;16.40;14.97;;;16.90;99.00;;;;;;5113505;28;20170;-56
2021/06/23 04:15:41;;;;;;;15.50;14.20;;;17.00;98.30;;;;;;5113608;28;20177;-53
2021/06/23 04:18:07;;;;;;;16.73;15.03;;;17.10;98.00;;;;;;5113172;28;20279;-58
2021/06/23 04:20:33;;;;;;;15.40;14.10;;;16.90;98.20;;;;;;5113399;28;20205;-58
2021/06/23 04:22:59;;;;;;;16.20;14.70;;;16.80;98.40;;;;;;5113474;28;20174;-55
2021/06/23 04:25:24;;;;;;;22.20;17.97;;;16.70;98.70;;;;;;5113462;28;20174;-57
2021/06/23 04:27:50;;;;;;;17.40;16.00;;;16.40;99.20;;;;;;5112822;28;20654;-55
2021/06/23 04:30:17;;;;;;;18.27;16.67;;;15.90;99.90;;;;;;5113497;28;20178;-59
2021/06/23 04:32:43;;;;;;;27.43;19.57;;;16.20;99.90;;;;;;5113084;28;20181;-56
2021/06/23 04:35:10;;;;;;;15.37;13.97;;;16.10;99.90;;;;;;5113141;28;20416;-57
2021/06/23 04:37:38;;;;;;;15.53;14.17;;;16.30;99.90;;;;;;5112803;28;20200;-54
2021/06/23 04:40:07;;;;;;;17.97;16.40;;;16.40;99.20;;;;;;5113054;28;20946;-58
2021/06/23 04:42:32;;;;;;;13.83;12.53;;;16.10;99.80;;;;;;5112896;28;20404;-57
2021/06/23 04:44:58;;;;;;;21.43;19.33;;;16.30;99.90;;;;;;5112954;28;20910;-54
2021/06/23 04:47:23;;;;;;;14.23;12.93;;;16.20;99.50;;;;;;5112734;28;20567;-54
2021/06/23 04:49:49;;;;;;;16.83;13.57;;;16.50;99.60;;;;;;5112968;28;20695;-54
2021/06/23 04:52:15;;;;;;;15.43;13.93;;;16.70;99.00;;;;;;5112922;28;20205;-57
2021/06/23 04:54:40;;;;;;;14.20;12.83;;;16.80;98.50;;;;;;5112799;28;20189;-58
2021/06/23 04:57:06;;;;;;;21.17;19.10;;;16.90;98.30;;;;;;5112368;28;20221;-56
2021/06/23 04:59:32;;;;;;;16.13;14.73;;;16.90;98.30;;;;;;5112766;28;20198;-57
2021/06/23 05:01:57;;;;;;;16.60;14.93;;;16.80;98.50;;;;;;5112680;28;20429;-56
2021/06/23 05:04:24;;;;;;;15.13;13.70;;;16.60;98.80;;;;;;5112590;28;20166;-56
2021/06/23 05:06:49;;;;;;;13.67;12.60;;;16.70;98.70;;;;;;5112416;28;20583;-54
2021/06/23 05:09:15;;;;;;;17.10;15.60;;;16.80;98.40;;;;;;5112596;28;20514;-59
2021/06/23 05:11:41;;;;;;;15.23;13.83;;;16.30;99.10;;;;;;5112564;28;20174;-56
2021/06/23 05:14:07;;;;;;;15.37;14.00;;;16.60;99.10;;;;;;5112515;28;20252;-55
2021/06/23 05:16:35;;;;;;;14.47;13.07;;;16.80;98.50;;;;;;5112256;28;20408;-58
2021/06/23 05:19:02;;;;;;;14.83;13.53;;;16.60;99.00;;;;;;5112330;28;20488;-57
2021/06/23 05:21:27;;;;;;;16.13;14.63;;;16.60;98.70;;;;;;5112470;28;20908;-57
2021/06/23 05:23:53;;;;;;;20.97;18.77;;;16.80;98.60;;;;;;5112315;28;20434;-57
2021/06/23 05:26:19;;;;;;;15.83;14.50;;;16.60;98.70;;;;;;5112332;28;20173;-55
2021/06/23 05:28:44;;;;;;;16.30;14.90;;;16.70;98.60;;;;;;5112079;28;20217;-57
2021/06/23 05:31:10;;;;;;;19.03;17.23;;;16.60;98.70;;;;;;5112382;28;20170;-54
2021/06/23 05:33:35;;;;;;;17.80;16.23;;;16.70;98.70;;;;;;5112221;28;20180;-59
2021/06/23 05:36:01;;;;;;;21.20;19.10;;;16.80;98.40;;;;;;5112341;28;20200;-62
2021/06/23 05:38:26;;;;;;;22.93;20.73;;;16.40;99.00;;;;;;5111895;28;20677;-62
2021/06/23 05:40:52;;;;;;;23.40;21.10;;;15.90;99.90;;;;;;5112143;28;20166;-62
2021/06/23 05:43:17;;;;;;;25.40;22.80;;;15.50;99.90;;;;;;5110983;28;20177;-65
2021/06/23 05:45:43;;;;;;;25.17;22.70;;;15.10;99.90;;;;;;5112295;28;20267;-61
2021/06/23 05:48:09;;;;;;;23.50;21.17;;;14.80;99.90;;;;;;5111823;28;20264;-62
2021/06/23 05:50:35;;;;;;;25.97;21.93;;;14.60;99.90;;;;;;5112188;28;20172;-63
2021/06/23 05:53:00;;;;;;;25.93;23.30;;;14.40;99.90;;;;;;5112079;28;20162;-61
2021/06/23 05:55:26;;;;;;;27.13;24.50;;;14.30;99.90;;;;;;5112121;28;20414;-63
2021/06/23 05:57:53;;;;;;;26.97;24.17;;;14.20;99.90;;;;;;5111753;28;20229;-61
2021/06/23 06:00:20;;;;;;;28.40;25.27;;;14.10;99.90;;;;;;5113915;28;20201;-63
2021/06/23 06:02:47;;;;;;;23.23;20.90;;;14.10;99.90;;;;;;5116148;28;20428;-62
2021/06/23 06:05:13;;;;;;;26.13;23.47;;;14.00;99.90;;;;;;5116129;28;20400;-64
2021/06/23 06:07:38;;;;;;;29.20;24.67;;;14.00;99.90;;;;;;5115704;28;20426;-64
2021/06/23 06:10:04;;;;;;;28.13;24.47;;;13.90;99.90;;;;;;5115354;28;20434;-61
2021/06/23 06:12:30;;;;;;;27.90;24.93;;;13.80;99.90;;;;;;5114905;28;20174;-60
2021/06/23 06:14:55;;;;;;;28.27;25.03;;;13.80;99.90;;;;;;5115872;28;20411;-62
2021/06/23 06:17:21;;;;;;;28.60;25.60;;;13.70;99.90;;;;;;5115512;28;20189;-62
2021/06/23 06:19:46;;;;;;;31.83;26.07;;;13.70;99.90;;;;;;5115693;28;20654;-61
2021/06/23 06:22:12;;;;;;;29.57;26.50;;;13.70;99.90;;;;;;5115790;28;20228;-61
2021/06/23 06:24:38;;;;;;;29.80;25.00;;;13.70;99.90;;;;;;5115542;28;20166;-62
2021/06/23 06:27:04;;;;;;;30.63;25.43;;;13.70;99.90;;;;;;5115330;28;20176;-62
2021/06/23 06:29:29;;;;;;;29.60;25.77;;;13.70;99.90;;;;;;5115728;28;20166;-62
2021/06/23 06:31:55;;;;;;;33.90;25.83;;;13.70;99.90;;;;;;5115621;28;20769;-62
2021/06/23 06:34:20;;;;;;;29.43;26.10;;;13.70;99.90;;;;;;5115523;28;20177;-63
2021/06/23 06:36:46;;;;;;;28.80;24.97;;;13.70;99.90;;;;;;5115156;28;20518;-63
2021/06/23 06:39:12;;;;;;;30.87;27.20;;;13.70;99.90;;;;;;5115253;28;20208;-65
2021/06/23 06:41:37;;;;;;;30.17;26.10;;;13.70;99.90;;;;;;5115425;28;20272;-59
2021/06/23 06:44:03;;;;;;;31.33;24.67;;;13.80;99.90;;;;;;5115383;28;20162;-58
2021/06/23 06:46:28;;;;;;;29.80;24.93;;;13.70;99.90;;;;;;5115087;28;20168;-60
2021/06/23 06:48:54;;;;;;;28.67;25.40;;;13.80;99.90;;;;;;5115208;28;20186;-61
2021/06/23 06:51:20;;;;;;;27.83;24.87;;;13.70;99.90;;;;;;5115328;28;20181;-58
2021/06/23 06:53:45;;;;;;;31.67;28.00;;;13.80;99.90;;;;;;5115080;28;20169;-58
2021/06/23 06:56:11;;;;;;;28.53;24.17;;;13.90;99.90;;;;;;5115195;28;20170;-62
2021/06/23 06:58:37;;;;;;;40.80;27.63;;;14.00;99.90;;;;;;5114702;28;20318;-62
2021/06/23 07:01:02;;;;;;;30.70;25.97;;;14.00;99.90;;;;;;5114885;28;20181;-63
2021/06/23 07:03:29;;;;;;;31.50;25.77;;;14.10;99.90;;;;;;5114920;28;20177;-61
2021/06/23 07:05:55;;;;;;;36.10;26.93;;;14.00;99.90;;;;;;5114928;28;20241;-63
2021/06/23 07:08:20;;;;;;;31.83;25.87;;;14.00;99.90;;;;;;5113174;28;20569;-62
2021/06/23 07:10:46;;;;;;;34.17;26.80;;;14.00;99.90;;;;;;5114090;28;20162;-62
2021/06/23 07:13:11;;;;;;;31.97;26.33;;;14.00;99.90;;;;;;5114363;28;20162;-61
2021/06/23 07:15:37;;;;;;;34.30;26.73;;;14.00;99.90;;;;;;5114704;28;20170;-64
2021/06/23 07:18:03;;;;;;;27.20;23.00;;;13.90;99.90;;;;;;5114404;28;20556;-61
2021/06/23 07:20:28;;;;;;;38.80;25.20;;;14.00;99.90;;;;;;5114691;28;20193;-62
2021/06/23 07:22:54;;;;;;;27.30;24.40;;;14.00;99.90;;;;;;5114525;28;20166;-62
2021/06/23 07:25:20;;;;;;;28.20;23.13;;;14.00;99.90;;;;;;5114571;28;20165;-62
2021/06/23 07:27:46;;;;;;;31.00;25.30;;;14.00;99.90;;;;;;5114213;28;20182;-62
2021/06/23 07:30:12;;;;;;;27.93;22.77;;;14.10;99.90;;;;;;5114606;28;20468;-64
2021/06/23 07:33:00;;;;;;;27.50;23.17;;;14.10;99.90;;;;;;5114357;28;20204;-62
2021/06/23 07:38:14;;;;;;;27.47;22.00;;;14.20;99.90;;;;;;5114027;28;20422;-62
2021/06/23 07:43:36;;;;;;;29.97;24.47;;;14.20;99.90;;;;;;5104995;28;20454;-62
2021/06/23 07:46:04;;;;;;;35.20;23.90;;;14.10;99.90;;;;;;5114142;28;20427;-62
2021/06/23 07:48:32;;;;;;;25.10;22.13;;;14.10;99.90;;;;;;5113824;28;20423;-62
2021/06/23 07:51:16;;;;;;;31.63;23.70;;;14.20;99.90;;;;;;5114064;28;20916;-62
2021/06/23 08:10:00;;;;;;;27.73;22.50;;;14.30;99.90;;;;;;5113704;28;20402;-62
2021/06/23 08:12:38;;;;;;;26.97;23.53;;;14.40;99.90;;;;;;5113644;28;20417;-63
2021/06/23 08:15:04;;;;;;;27.13;21.87;;;14.50;99.90;;;;;;5113517;28;20491;-62
2021/06/23 08:17:30;;;;;;;25.50;21.90;;;14.50;99.90;;;;;;5113186;28;20431;-62
2021/06/23 08:19:55;;;;;;;24.60;21.87;;;14.60;99.90;;;;;;5113434;28;20817;-62
2021/06/23 08:22:21;;;;;;;33.00;23.63;;;14.60;99.90;;;;;;5113215;28;20166;-62
2021/06/23 08:24:47;;;;;;;26.50;21.00;;;14.60;99.90;;;;;;5113433;28;20661;-61
2021/06/23 08:27:12;;;;;;;28.20;22.83;;;14.60;99.90;;;;;;5113020;28;20171;-61
2021/06/23 08:29:38;;;;;;;29.47;24.33;;;14.60;99.90;;;;;;5113128;28;20173;-61
2021/06/23 08:32:04;;;;;;;34.03;23.30;;;14.60;99.90;;;;;;5113461;28;20166;-62
2021/06/23 08:34:30;;;;;;;27.30;24.40;;;14.70;99.90;;;;;;5113146;28;20170;-63
2021/06/23 08:36:56;;;;;;;27.63;23.10;;;14.60;99.90;;;;;;5112860;28;20409;-63
2021/06/23 08:39:22;;;;;;;27.00;22.20;;;14.70;99.90;;;;;;5113031;28;20194;-62
2021/06/23 08:41:47;;;;;;;25.60;20.97;;;14.70;99.90;;;;;;5113141;28;20400;-62
2021/06/23 08:44:13;;;;;;;30.87;22.47;;;14.70;99.90;;;;;;5112893;28;20652;-63
2021/06/23 08:46:39;;;;;;;28.70;22.23;;;14.70;99.90;;;;;;5112725;28;20576;-64
2021/06/23 08:49:06;;;;;;;33.33;26.20;;;14.60;99.90;;;;;;5112820;28;20185;-63
2021/06/23 08:51:34;;;;;;;24.57;22.00;;;14.70;99.90;;;;;;5112960;28;20488;-62
2021/06/23 08:54:00;;;;;;;29.30;23.70;;;14.80;99.90;;;;;;5112813;28;20398;-62
2021/06/23 08:56:26;;;;;;;28.40;21.60;;;14.90;99.90;;;;;;5112627;28;20407;-60
2021/06/23 08:58:51;;;;;;;27.53;23.37;;;15.00;99.90;;;;;;5112487;28;20186;-63
2021/06/23 09:01:17;;;;;;;24.10;21.33;;;15.10;99.90;;;;;;5112669;28;20234;-63
2021/06/23 09:04:18;;;;;;;25.47;21.33;;;15.20;99.90;;;;;;5112625;28;20170;-62
2021/06/23 09:06:59;;;;;;;24.13;21.37;;;15.20;99.90;;;;;;5112419;28;20824;-63
2021/06/23 09:09:30;;;;;;;28.53;22.97;;;15.20;99.90;;;;;;5112615;28;20419;-63
2021/06/23 09:12:04;;;;;;;29.17;23.03;;;15.20;99.90;;;;;;5112658;28;20404;-62
2021/06/23 09:14:33;;;;;;;29.83;24.20;;;15.10;99.90;;;;;;5112483;28;20425;-63
2021/06/23 09:17:19;;;;;;;27.93;22.93;;;15.00;99.90;;;;;;5112239;28;20976;-64
2021/06/23 09:19:47;;;;;;;28.13;23.03;;;15.20;99.90;;;;;;5112219;28;20461;-64
2021/06/23 09:22:40;;;;;;;30.40;24.30;;;15.30;99.90;;;;;;5112804;28;20400;-64
2021/06/23 09:25:11;;;;;;;30.03;24.20;;;15.40;99.90;;;;;;5109436;28;20774;-63
2021/06/23 09:27:47;;;;;;;31.80;24.60;;;15.40;99.90;;;;;;5112057;28;20416;-65
2021/06/23 09:30:35;;;;;;;28.00;23.27;;;15.50;99.90;;;;;;5112436;28;20856;-63
2021/06/23 09:33:25;;;;;;;33.17;26.03;;;15.50;99.90;;;;;;5112372;28;20452;-63
2021/06/23 09:35:57;;;;;;;29.57;26.37;;;15.60;99.90;;;;;;5112228;28;20400;-66
2021/06/23 09:38:33;;;;;;;31.50;25.00;;;15.70;99.90;;;;;;5111874;28;20408;-64
2021/06/23 09:41:00;;;;;;;32.93;24.60;;;15.70;99.90;;;;;;5112335;28;20509;-64
2021/06/23 09:43:40;;;;;;;29.87;23.20;;;15.80;99.90;;;;;;5112160;28;20406;-67
2021/06/23 09:46:19;;;;;;;29.40;23.80;;;15.80;99.90;;;;;;5112609;28;20900;-67
2021/06/23 09:48:46;;;;;;;29.20;23.43;;;15.80;99.90;;;;;;5112125;28;20831;-67
2021/06/23 09:51:14;;;;;;;29.00;23.03;;;15.90;99.90;;;;;;5112329;28;20396;-70
2021/06/23 09:53:40;;;;;;;30.77;25.47;;;15.90;99.90;;;;;;5112104;28;20896;-68
2021/06/23 09:56:29;;;;;;;28.63;25.43;;;16.00;99.90;;;;;;5112214;28;20403;-65
2021/06/23 09:58:56;;;;;;;28.90;25.17;;;15.90;99.90;;;;;;5111921;28;20246;-68
2021/06/23 10:01:22;;;;;;;32.23;26.67;;;16.00;99.90;;;;;;5112040;28;20896;-66
2021/06/23 10:03:53;;;;;;;28.70;24.80;;;15.90;99.90;;;;;;5111970;28;20414;-66
2021/06/23 10:06:19;;;;;;;30.93;25.03;;;16.00;99.90;;;;;;5112286;28;20404;-68
2021/06/23 10:08:45;;;;;;;33.50;24.80;;;16.10;99.90;;;;;;5113758;28;20411;-68
2021/06/23 10:11:10;;;;;;;32.07;26.83;;;16.10;99.90;;;;;;5112724;28;20461;-64
2021/06/23 10:13:36;;;;;;;33.73;25.40;;;16.20;99.90;;;;;;5112345;28;20550;-69
2021/06/23 10:16:02;;;;;;;31.17;26.70;;;16.30;99.90;;;;;;5110940;28;20181;-68
2021/06/23 10:18:28;;;;;;;32.73;26.03;;;16.40;99.90;;;;;;5111758;28;20189;-68
2021/06/23 10:20:54;;;;;;;34.20;27.97;;;16.40;99.90;;;;;;5112560;28;20399;-68
2021/06/23 10:23:20;;;;;;;35.03;27.17;;;16.50;99.90;;;;;;5112210;28;20400;-65
2021/06/23 10:25:46;;;;;;;35.57;26.70;;;16.30;99.90;;;;;;5111801;28;20408;-65
2021/06/23 10:28:12;;;;;;;34.33;28.23;;;16.30;99.90;;;;;;5111355;28;20189;-65
2021/06/23 10:30:37;;;;;;;38.93;30.83;;;16.20;99.90;;;;;;5111949;28;20415;-65
2021/06/23 10:33:03;;;;;;;35.00;28.17;;;16.10;99.90;;;;;;5111769;28;20166;-64
2021/06/23 10:35:29;;;;;;;41.63;28.40;;;16.10;99.90;;;;;;5111897;28;20653;-65
2021/06/23 10:37:56;;;;;;;37.40;29.60;;;15.90;99.90;;;;;;5111441;28;20428;-66
2021/06/23 10:40:22;;;;;;;35.47;29.07;;;16.00;99.90;;;;;;5111673;28;20228;-65
2021/06/23 10:42:48;;;;;;;38.27;29.47;;;16.00;99.90;;;;;;5111543;28;20424;-65
2021/06/23 10:45:14;;;;;;;38.37;30.33;;;16.00;99.90;;;;;;5112484;28;21024;-66
2021/06/23 10:47:48;;;;;;;42.30;32.43;;;16.00;99.90;;;;;;5114998;28;20434;-64
2021/06/23 10:50:16;;;;;;;41.40;31.37;;;16.00;99.90;;;;;;5116815;28;20399;-66
2021/06/23 10:52:46;;;;;;;41.83;33.93;;;15.90;99.90;;;;;;5115164;28;20442;-64
2021/06/23 10:55:14;;;;;;;41.33;34.23;;;15.80;99.90;;;;;;5115406;28;20761;-68
2021/06/23 10:57:45;;;;;;;42.53;33.80;;;15.80;99.90;;;;;;5114711;28;20859;-65
2021/06/23 11:00:14;;;;;;;46.33;37.30;;;15.70;99.90;;;;;;5115039;28;20550;-66
2021/06/23 11:02:41;;;;;;;48.93;35.57;;;15.60;99.90;;;;;;5114950;28;20408;-68
2021/06/23 11:05:10;;;;;;;46.70;35.97;;;15.50;99.90;;;;;;5114979;28;20404;-65
2021/06/23 11:07:38;;;;;;;46.93;33.20;;;15.60;99.90;;;;;;5114602;28;20444;-64
2021/06/23 11:10:12;;;;;;;45.50;32.07;;;15.60;99.90;;;;;;5114812;28;20461;-64
2021/06/23 11:13:08;;;;;;;38.87;30.53;;;15.50;99.90;;;;;;5114765;28;20990;-63
2021/06/23 11:15:40;;;;;;;50.47;35.60;;;15.50;99.90;;;;;;5108056;28;20803;-64
2021/06/23 11:18:17;;;;;;;46.20;34.63;;;15.40;99.90;;;;;;5114398;28;20411;-65
2021/06/23 11:21:03;;;;;;;50.60;36.30;;;15.40;99.90;;;;;;5114647;28;20443;-64
2021/06/23 11:23:53;;;;;;;58.57;40.67;;;15.40;99.90;;;;;;5100183;28;20481;-64
2021/06/23 11:26:19;;;;;;;51.90;36.67;;;15.30;99.90;;;;;;5114537;28;20798;-64
2021/06/23 11:29:13;;;;;;;57.77;42.60;;;15.30;99.90;;;;;;5114088;28;20422;-65
2021/06/23 11:31:51;;;;;;;59.97;40.57;;;15.30;99.90;;;;;;5083935;27;20182;-64
2021/06/23 11:34:38;;;;;;;58.20;40.93;;;15.20;99.90;;;;;;5114470;28;20467;-64
2021/06/23 11:37:06;;;;;;;52.33;38.37;;;15.30;99.90;;;;;;5113827;28;20464;-64
2021/06/23 11:39:31;;;;;;;67.13;40.30;;;15.30;99.90;;;;;;5114247;28;20447;-65
2021/06/23 11:41:57;;;;;;;71.23;43.63;;;15.30;99.90;;;;;;5114299;28;20856;-65
2021/06/23 11:44:22;;;;;;;70.70;46.83;;;15.30;99.90;;;;;;5114195;28;20627;-64
2021/06/23 11:46:48;;;;;;;75.23;47.90;;;15.20;99.90;;;;;;5113871;28;20161;-63
2021/06/23 11:49:13;;;;;;;70.80;46.77;;;15.20;99.90;;;;;;5114090;28;20190;-64
2021/06/23 11:51:42;;;;;;;64.73;43.27;;;15.20;99.90;;;;;;5114015;28;20170;-64
2021/06/23 11:54:08;;;;;;;63.53;41.97;;;15.20;99.90;;;;;;5113977;28;20177;-64
2021/06/23 11:56:33;;;;;;;62.10;41.40;;;15.20;99.90;;;;;;5113598;28;20760;-64
2021/06/23 11:58:59;;;;;;;61.37;42.07;;;15.20;99.90;;;;;;5113232;28;20471;-65
2021/06/23 12:01:25;;;;;;;61.73;42.93;;;15.20;99.90;;;;;;5113879;28;20416;-64
2021/06/23 12:03:52;;;;;;;68.13;44.17;;;15.20;99.90;;;;;;5113803;28;20169;-64
2021/06/23 12:06:17;;;;;;;52.43;38.50;;;15.20;99.90;;;;;;5113751;28;20212;-64
2021/06/23 12:08:43;;;;;;;57.77;40.23;;;15.10;99.90;;;;;;5113404;28;20432;-64
2021/06/23 12:11:10;;;;;;;58.30;41.20;;;15.10;99.90;;;;;;5093306;28;20659;-64
2021/06/23 12:13:37;;;;;;;48.50;37.60;;;15.20;99.90;;;;;;5093286;28;20400;-64
2021/06/23 12:16:02;;;;;;;45.27;34.67;;;15.10;99.90;;;;;;5093233;28;20162;-65
2021/06/23 12:18:28;;;;;;;45.20;31.97;;;15.10;99.90;;;;;;5091593;28;20421;-64
2021/06/23 12:20:54;;;;;;;39.27;30.07;;;15.10;99.90;;;;;;5092976;28;20288;-64
2021/06/23 12:23:19;;;;;;;44.63;32.03;;;15.10;99.90;;;;;;5093039;28;20246;-65
2021/06/23 12:25:47;;;;;;;44.50;33.10;;;14.90;99.90;;;;;;5093071;28;20185;-64
2021/06/23 12:28:14;;;;;;;45.17;32.80;;;15.00;99.90;;;;;;5092665;28;20221;-65
2021/06/23 12:30:42;;;;;;;42.50;31.33;;;15.00;99.90;;;;;;5093014;28;20466;-65
2021/06/23 12:33:10;;;;;;;43.23;29.80;;;15.00;99.90;;;;;;5092759;28;20447;-64
2021/06/23 12:35:40;;;;;;;42.70;31.57;;;15.10;99.90;;;;;;5092786;28;20424;-64
2021/06/23 12:38:07;;;;;;;44.30;29.70;;;15.10;99.90;;;;;;5092420;28;20424;-64
2021/06/23 12:40:33;;;;;;;42.93;30.63;;;15.00;99.90;;;;;;5092735;28;20833;-64
2021/06/23 12:42:59;;;;;;;43.97;32.37;;;15.00;99.90;;;;;;5092688;28;20401;-64
2021/06/23 12:45:25;;;;;;;37.77;28.93;;;15.00;99.90;;;;;;5092745;28;20459;-64
2021/06/23 12:47:51;;;;;;;47.00;32.63;;;15.00;99.90;;;;;;5092234;28;20187;-64
2021/06/23 12:50:17;;;;;;;41.23;31.20;;;15.00;99.90;;;;;;5092593;28;20397;-64
2021/06/23 12:52:50;;;;;;;45.80;33.33;;;15.00;99.90;;;;;;5092410;28;20166;-64
2021/06/23 12:55:17;;;;;;;39.67;28.97;;;14.90;99.90;;;;;;5092570;28;20492;-64